Time;durP1;ratioP1;P1;durP2;ratioP2;P2;SDS_P1;SDS_P2;PMS_P1;PMS_P2;Temp;Humidity;BMP_temperature;BMP_pressure;BME280_temperature;BME280_humidity;BME280_pressure;Samples;Min_cycle;Max_cycle;Signal;HPM_P1;HPM_P2
2023/01/04 00:01:35;;;;;;;67.20;12.68;;;;;;;;;;5074032;28;20233;-69
2023/01/04 00:04:02;;;;;;;72.13;13.05;;;;;;;;;;5074256;28;20207;-69
2023/01/04 00:06:29;;;;;;;68.30;12.93;;;;;;;;;;5074132;28;20211;-69
2023/01/04 00:08:56;;;;;;;72.47;13.45;;;;;;;;;;5073040;28;20227;-69
2023/01/04 00:11:24;;;;;;;71.35;13.93;;;;;;;;;;5073814;28;20235;-69
2023/01/04 00:13:52;;;;;;;70.15;12.52;;;;;;;;;;5073836;28;20211;-69
2023/01/04 00:16:21;;;;;;;70.05;13.45;;;;;;;;;;5073876;28;20208;-69
2023/01/04 00:18:48;;;;;;;70.05;13.35;;;;;;;;;;5072930;28;20210;-69
2023/01/04 00:21:16;;;;;;;69.32;11.60;;;;;;;;;;5073636;28;20227;-69
2023/01/04 00:23:44;;;;;;;72.40;12.50;;;;;;;;;;5073577;28;20217;-69
2023/01/04 00:26:12;;;;;;;69.38;12.00;;;;;;;;;;5073666;28;20222;-69
2023/01/04 00:28:39;;;;;;;78.78;13.80;;;;;;;;;;5072824;28;20598;-69
2023/01/04 00:31:07;;;;;;;69.15;13.07;;;;;;;;;;5073625;28;20223;-69
2023/01/04 00:33:36;;;;;;;69.88;12.40;;;;;;;;;;5073523;28;20207;-69
2023/01/04 00:36:04;;;;;;;66.53;12.02;;;;;;;;;;5073314;28;20688;-69
2023/01/04 00:38:31;;;;;;;71.78;12.63;;;;;;;;;;5073018;28;20211;-69
2023/01/04 00:40:58;;;;;;;69.63;13.05;;;;;;;;;;5073394;28;20204;-69
2023/01/04 00:43:25;;;;;;;70.05;12.88;;;;;;;;;;5073208;28;20207;-69
2023/01/04 00:45:52;;;;;;;73.05;12.90;;;;;;;;;;5073377;28;20207;-69
2023/01/04 00:48:19;;;;;;;69.45;12.15;;;;;;;;;;5072803;28;20228;-69
2023/01/04 00:50:48;;;;;;;75.00;13.15;;;;;;;;;;5072208;28;20212;-69
2023/01/04 00:53:16;;;;;;;68.57;12.32;;;;;;;;;;5073074;28;20211;-68
2023/01/04 00:55:43;;;;;;;70.85;12.77;;;;;;;;;;5073044;28;20214;-69
2023/01/04 00:58:11;;;;;;;68.90;12.80;;;;;;;;;;5072808;28;20204;-69
2023/01/04 01:00:38;;;;;;;71.95;12.88;;;;;;;;;;5072270;28;20209;-69
2023/01/04 01:03:05;;;;;;;70.88;12.75;;;;;;;;;;5072725;28;20247;-69
2023/01/04 01:05:33;;;;;;;67.45;12.00;;;;;;;;;;5072796;28;20213;-69
2023/01/04 01:08:23;;;;;;;71.55;13.25;;;;;;;;;;5072837;28;20208;-69
2023/01/04 01:10:50;;;;;;;68.78;12.07;;;;;;;;;;5071095;28;20219;-69
2023/01/04 01:13:17;;;;;;;74.38;13.07;;;;;;;;;;5072705;28;20297;-69
2023/01/04 01:15:44;;;;;;;68.25;12.68;;;;;;;;;;5072545;28;20594;-69
2023/01/04 01:18:11;;;;;;;70.35;13.40;;;;;;;;;;5072785;28;20203;-69
2023/01/04 01:20:42;;;;;;;69.10;11.85;;;;;;;;;;5072000;28;20585;-69
2023/01/04 01:23:11;;;;;;;68.93;12.07;;;;;;;;;;5072476;28;20216;-69
2023/01/04 01:25:38;;;;;;;68.18;12.32;;;;;;;;;;5072373;28;20213;-69
2023/01/04 01:28:05;;;;;;;66.35;11.45;;;;;;;;;;5072160;28;20214;-69
2023/01/04 01:30:32;;;;;;;67.78;11.02;;;;;;;;;;5071895;28;20206;-69
2023/01/04 01:33:00;;;;;;;69.13;12.70;;;;;;;;;;5072418;28;20232;-69
2023/01/04 01:35:27;;;;;;;69.78;12.85;;;;;;;;;;5072286;28;20212;-69
2023/01/04 01:37:54;;;;;;;68.00;11.60;;;;;;;;;;5072289;28;20209;-69
2023/01/04 01:40:22;;;;;;;69.82;12.45;;;;;;;;;;5071500;28;20208;-69
2023/01/04 01:42:49;;;;;;;69.38;12.20;;;;;;;;;;5071882;28;20230;-69
2023/01/04 01:45:23;;;;;;;67.07;11.57;;;;;;;;;;5072279;28;20214;-69
2023/01/04 01:47:51;;;;;;;68.50;12.88;;;;;;;;;;5072154;28;20679;-69
2023/01/04 01:50:20;;;;;;;67.38;10.80;;;;;;;;;;5071327;28;20239;-68
2023/01/04 01:52:48;;;;;;;68.25;11.30;;;;;;;;;;5071953;28;20232;-69
2023/01/04 01:55:16;;;;;;;67.22;11.32;;;;;;;;;;5071879;28;20209;-69
2023/01/04 01:57:45;;;;;;;66.10;10.25;;;;;;;;;;5072139;28;20212;-69
2023/01/04 02:00:14;;;;;;;66.10;10.48;;;;;;;;;;5071341;28;20202;-69
2023/01/04 02:02:43;;;;;;;67.38;10.80;;;;;;;;;;5071956;28;20235;-69
2023/01/04 02:05:10;;;;;;;66.05;10.43;;;;;;;;;;5071922;28;20229;-69
2023/01/04 02:07:38;;;;;;;65.97;10.25;;;;;;;;;;5071786;28;20206;-69
2023/01/04 02:10:05;;;;;;;67.82;11.65;;;;;;;;;;5071148;28;20229;-69
2023/01/04 02:12:32;;;;;;;68.40;11.85;;;;;;;;;;5071751;28;20224;-69
2023/01/04 02:15:01;;;;;;;65.85;10.57;;;;;;;;;;5068111;28;20205;-69
2023/01/04 02:17:34;;;;;;;65.90;11.13;;;;;;;;;;5071872;28;20210;-69
2023/01/04 02:20:19;;;;;;;64.85;10.23;;;;;;;;;;5070949;28;20209;-69
2023/01/04 02:23:01;;;;;;;66.60;11.50;;;;;;;;;;5071673;28;20229;-69
2023/01/04 02:25:37;;;;;;;67.70;10.98;;;;;;;;;;5071646;28;20235;-69
2023/01/04 02:28:08;;;;;;;65.60;11.25;;;;;;;;;;5071495;28;20209;-69
2023/01/04 02:30:50;;;;;;;66.90;10.05;;;;;;;;;;5070946;28;20236;-69
2023/01/04 02:33:24;;;;;;;69.25;11.68;;;;;;;;;;5071532;28;20201;-69
2023/01/04 02:35:57;;;;;;;67.72;10.95;;;;;;;;;;5071611;28;20208;-69
2023/01/04 02:38:27;;;;;;;65.15;10.25;;;;;;;;;;5071714;28;20210;-69
2023/01/04 02:40:57;;;;;;;66.25;11.70;;;;;;;;;;5071069;28;20215;-69
2023/01/04 02:46:15;;;;;;;66.57;11.25;;;;;;;;;;5071519;28;20202;-69
2023/01/04 02:51:29;;;;;;;65.72;10.05;;;;;;;;;;5071354;28;20220;-69
2023/01/04 02:53:57;;;;;;;66.22;11.05;;;;;;;;;;5071473;28;20234;-69
2023/01/04 02:56:35;;;;;;;67.30;10.90;;;;;;;;;;5071383;28;20212;-69
2023/01/04 02:59:10;;;;;;;69.28;11.60;;;;;;;;;;5070464;28;20208;-68
2023/01/04 03:07:27;;;;;;;66.60;10.77;;;;;;;;;;5071231;28;20739;-68
2023/01/04 03:09:59;;;;;;;68.45;11.40;;;;;;;;;;5070574;28;20227;-68
2023/01/04 03:12:32;;;;;;;69.60;11.02;;;;;;;;;;5071251;28;20250;-68
2023/01/04 03:15:01;;;;;;;66.57;10.68;;;;;;;;;;5071265;28;20613;-68
2023/01/04 03:17:32;;;;;;;68.20;10.93;;;;;;;;;;5071133;28;20212;-68
2023/01/04 03:20:00;;;;;;;67.78;12.32;;;;;;;;;;5070272;28;20189;-68
2023/01/04 03:36:25;;;;;;;67.35;11.55;;;;;;;;;;5075149;28;20261;-68
2023/01/04 03:50:06;;;;;;;67.40;11.63;;;;;;;;;;5073513;28;20236;-69
2023/01/04 03:52:34;;;;;;;68.10;11.60;;;;;;;;;;5074336;28;20231;-69
2023/01/04 03:55:02;;;;;;;66.55;10.85;;;;;;;;;;5074218;28;20202;-69
2023/01/04 03:57:30;;;;;;;66.43;9.80;;;;;;;;;;5074154;28;20707;-69
2023/01/04 03:59:59;;;;;;;66.32;10.70;;;;;;;;;;5073390;28;20222;-69
2023/01/04 04:02:29;;;;;;;68.88;10.90;;;;;;;;;;5074212;28;20246;-69
2023/01/04 04:10:27;;;;;;;70.28;12.05;;;;;;;;;;5073250;28;20230;-69
2023/01/04 04:12:54;;;;;;;66.70;10.60;;;;;;;;;;5073972;28;20224;-69
2023/01/04 04:15:21;;;;;;;66.30;10.77;;;;;;;;;;5073867;28;20709;-69
2023/01/04 04:17:48;;;;;;;67.70;11.30;;;;;;;;;;5073817;28;20207;-69
2023/01/04 04:20:16;;;;;;;71.63;10.88;;;;;;;;;;5072878;28;20670;-69
2023/01/04 04:22:44;;;;;;;69.00;10.75;;;;;;;;;;5073653;28;20738;-69
2023/01/04 04:25:11;;;;;;;66.93;10.20;;;;;;;;;;5073681;28;20213;-69
2023/01/04 04:27:38;;;;;;;67.90;10.27;;;;;;;;;;5073694;28;20209;-69
2023/01/04 04:30:06;;;;;;;65.72;10.32;;;;;;;;;;5072738;28;20228;-69
2023/01/04 04:32:33;;;;;;;68.30;11.27;;;;;;;;;;5073471;28;20231;-69
2023/01/04 04:35:00;;;;;;;67.10;11.05;;;;;;;;;;5073462;28;20681;-69
2023/01/04 04:37:29;;;;;;;67.82;12.50;;;;;;;;;;5073707;28;20213;-69
2023/01/04 04:39:58;;;;;;;67.47;11.10;;;;;;;;;;5072542;28;20207;-69
2023/01/04 04:42:24;;;;;;;66.57;10.45;;;;;;;;;;5073352;28;20235;-69
2023/01/04 04:44:51;;;;;;;68.40;10.32;;;;;;;;;;5073370;28;20302;-70
2023/01/04 04:47:18;;;;;;;65.10;10.25;;;;;;;;;;5073219;28;20590;-69
2023/01/04 04:49:45;;;;;;;66.13;10.63;;;;;;;;;;5072246;28;20237;-68
2023/01/04 04:52:12;;;;;;;64.78;9.15;;;;;;;;;;5072990;28;20231;-68
2023/01/04 04:54:39;;;;;;;65.60;9.75;;;;;;;;;;5073506;28;20606;-68
2023/01/04 04:57:08;;;;;;;65.97;9.88;;;;;;;;;;5073161;28;20208;-68
2023/01/04 05:00:01;;;;;;;64.97;9.80;;;;;;;;;;5072074;28;20208;-68
2023/01/04 05:02:28;;;;;;;65.55;10.35;;;;;;;;;;5069759;28;20229;-68
2023/01/04 05:04:55;;;;;;;64.53;9.15;;;;;;;;;;5072840;28;20215;-68
2023/01/04 05:07:22;;;;;;;66.13;9.82;;;;;;;;;;5072918;28;20229;-68
2023/01/04 05:09:49;;;;;;;64.40;9.70;;;;;;;;;;5071988;28;20228;-68
2023/01/04 05:15:02;;;;;;;64.38;9.55;;;;;;;;;;5072690;28;20195;-68
2023/01/04 05:17:29;;;;;;;63.40;8.63;;;;;;;;;;5072867;28;20681;-68
2023/01/04 05:19:57;;;;;;;65.28;9.10;;;;;;;;;;5072012;28;20205;-71
2023/01/04 05:22:24;;;;;;;65.47;9.15;;;;;;;;;;5072613;28;20228;-71
2023/01/04 05:24:51;;;;;;;64.90;9.63;;;;;;;;;;5072482;28;20219;-70
2023/01/04 05:27:19;;;;;;;63.67;8.75;;;;;;;;;;5072420;28;20211;-70
2023/01/04 05:32:31;;;;;;;66.20;9.30;;;;;;;;;;5072479;28;20212;-70
2023/01/04 05:34:58;;;;;;;64.07;8.65;;;;;;;;;;5072371;28;20693;-70
2023/01/04 05:37:25;;;;;;;64.78;8.82;;;;;;;;;;5072276;28;20205;-70
2023/01/04 05:39:52;;;;;;;63.58;8.40;;;;;;;;;;5071392;28;20676;-70
2023/01/04 05:42:30;;;;;;;64.25;8.00;;;;;;;;;;5072325;28;20232;-70
2023/01/04 05:44:58;;;;;;;63.30;7.55;;;;;;;;;;5072313;28;20219;-70
2023/01/04 05:47:25;;;;;;;63.47;8.02;;;;;;;;;;5072202;28;20216;-70
2023/01/04 05:49:53;;;;;;;64.75;8.38;;;;;;;;;;5071271;28;20231;-69
2023/01/04 05:52:20;;;;;;;62.03;7.85;;;;;;;;;;5071487;28;20225;-69
2023/01/04 05:54:47;;;;;;;62.55;7.68;;;;;;;;;;5072197;28;20209;-69
2023/01/04 05:57:15;;;;;;;62.00;7.72;;;;;;;;;;5071530;28;20205;-69
2023/01/04 05:59:43;;;;;;;66.47;8.43;;;;;;;;;;5071153;28;20201;-70
2023/01/04 06:02:14;;;;;;;66.05;7.30;;;;;;;;;;5071958;28;20225;-70
2023/01/04 06:04:41;;;;;;;63.88;8.75;;;;;;;;;;5071811;28;20283;-70
2023/01/04 06:07:09;;;;;;;63.15;7.60;;;;;;;;;;5071971;28;20205;-70
2023/01/04 06:09:36;;;;;;;63.88;8.60;;;;;;;;;;5071065;28;20244;-70
2023/01/04 06:12:03;;;;;;;65.65;9.18;;;;;;;;;;5071864;28;20319;-70
2023/01/04 06:14:30;;;;;;;64.65;8.73;;;;;;;;;;5071834;28;20211;-70
2023/01/04 06:16:59;;;;;;;63.83;9.50;;;;;;;;;;5072247;28;20207;-70
2023/01/04 06:19:26;;;;;;;63.53;8.75;;;;;;;;;;5070588;28;20211;-70
2023/01/04 06:21:53;;;;;;;62.20;7.72;;;;;;;;;;5071554;28;20225;-69
2023/01/04 06:24:20;;;;;;;63.88;8.90;;;;;;;;;;5071852;28;20231;-69
2023/01/04 06:26:47;;;;;;;65.00;8.52;;;;;;;;;;5071532;28;20217;-69
2023/01/04 06:29:15;;;;;;;65.10;8.88;;;;;;;;;;5070908;28;20209;-69
2023/01/04 06:31:42;;;;;;;67.20;8.93;;;;;;;;;;5071525;28;20282;-71
2023/01/04 06:34:12;;;;;;;64.10;8.77;;;;;;;;;;5071778;28;20586;-70
2023/01/04 06:36:39;;;;;;;63.42;8.05;;;;;;;;;;5071476;28;20677;-70
2023/01/04 06:39:07;;;;;;;69.20;8.55;;;;;;;;;;5070706;28;20209;-70
2023/01/04 06:41:34;;;;;;;65.82;9.45;;;;;;;;;;5071654;28;20248;-69
2023/01/04 06:44:02;;;;;;;63.15;7.65;;;;;;;;;;5071545;28;20205;-70
2023/01/04 06:46:29;;;;;;;64.13;8.70;;;;;;;;;;5071336;28;20212;-70
2023/01/04 06:48:57;;;;;;;63.60;7.88;;;;;;;;;;5070818;28;20205;-69
2023/01/04 06:51:25;;;;;;;62.80;7.32;;;;;;;;;;5071362;28;20234;-70
2023/01/04 06:53:52;;;;;;;63.28;8.20;;;;;;;;;;5071601;28;20212;-69
2023/01/04 06:56:19;;;;;;;62.08;7.70;;;;;;;;;;5071303;28;20684;-69
2023/01/04 06:58:46;;;;;;;65.28;8.95;;;;;;;;;;5070445;28;20210;-69
2023/01/04 07:01:13;;;;;;;62.70;8.20;;;;;;;;;;5070851;28;20225;-69
2023/01/04 07:03:41;;;;;;;62.05;7.15;;;;;;;;;;5071441;28;20205;-69
2023/01/04 07:06:09;;;;;;;65.30;8.45;;;;;;;;;;5071334;28;20205;-69
2023/01/04 07:08:37;;;;;;;63.38;8.20;;;;;;;;;;5072503;28;20590;-69
2023/01/04 07:11:04;;;;;;;63.53;7.75;;;;;;;;;;5074871;28;20239;-69
2023/01/04 07:13:32;;;;;;;65.38;8.20;;;;;;;;;;5074957;28;20232;-69
2023/01/04 07:15:59;;;;;;;73.00;9.70;;;;;;;;;;5074903;28;20211;-69
2023/01/04 07:18:26;;;;;;;62.60;7.93;;;;;;;;;;5074762;28;20704;-69
2023/01/04 07:20:53;;;;;;;64.63;9.30;;;;;;;;;;5074253;28;20223;-69
2023/01/04 07:23:20;;;;;;;64.28;8.88;;;;;;;;;;5074947;28;20206;-69
2023/01/04 07:25:48;;;;;;;62.72;8.15;;;;;;;;;;5074707;28;20227;-69
2023/01/04 07:29:13;;;;;;;63.30;8.43;;;;;;;;;;5074569;28;20307;-69
2023/01/04 07:31:07;;;;;;;64.05;8.63;;;;;;;;;;5074404;28;20268;-69
2023/01/04 07:33:34;;;;;;;64.32;8.73;;;;;;;;;;5074779;28;20577;-69
2023/01/04 07:36:04;;;;;;;65.82;9.30;;;;;;;;;;5075116;28;20215;-69
2023/01/04 07:38:32;;;;;;;65.60;9.35;;;;;;;;;;5073917;28;20209;-68
2023/01/04 07:41:00;;;;;;;64.63;8.15;;;;;;;;;;5074714;28;20370;-68
2023/01/04 07:43:27;;;;;;;65.05;8.38;;;;;;;;;;5074445;28;20213;-68
2023/01/04 07:45:54;;;;;;;63.20;8.10;;;;;;;;;;5074500;28;20203;-68
2023/01/04 07:48:21;;;;;;;63.90;8.60;;;;;;;;;;5074223;28;20201;-68
2023/01/04 07:50:49;;;;;;;63.25;8.38;;;;;;;;;;5070004;28;20596;-68
2023/01/04 07:53:17;;;;;;;63.25;8.27;;;;;;;;;;5062425;28;20224;-68
2023/01/04 07:55:44;;;;;;;64.50;8.07;;;;;;;;;;5054230;28;20710;-68
2023/01/04 07:58:13;;;;;;;63.45;8.05;;;;;;;;;;5054285;28;20255;-68
2023/01/04 08:00:40;;;;;;;63.75;8.43;;;;;;;;;;5053430;28;20669;-68
2023/01/04 08:03:07;;;;;;;64.35;9.45;;;;;;;;;;5054063;28;20230;-68
2023/01/04 08:05:34;;;;;;;79.05;9.07;;;;;;;;;;5054040;28;20202;-68
2023/01/04 08:08:01;;;;;;;64.75;8.73;;;;;;;;;;5053849;28;20209;-68
2023/01/04 08:10:29;;;;;;;63.17;7.93;;;;;;;;;;5053390;28;20221;-68
2023/01/04 08:12:58;;;;;;;66.00;9.10;;;;;;;;;;5053999;28;20258;-68
2023/01/04 08:15:27;;;;;;;67.15;8.68;;;;;;;;;;5053963;28;20279;-68
2023/01/04 08:17:56;;;;;;;62.67;7.75;;;;;;;;;;5053848;28;20232;-68
2023/01/04 08:20:23;;;;;;;67.55;9.27;;;;;;;;;;5052603;28;20205;-68
2023/01/04 08:22:50;;;;;;;65.22;8.60;;;;;;;;;;5053885;28;20605;-68
2023/01/04 08:25:17;;;;;;;63.83;8.35;;;;;;;;;;5053686;28;20228;-68
2023/01/04 08:27:44;;;;;;;63.53;8.52;;;;;;;;;;5053637;28;20216;-68
2023/01/04 08:30:12;;;;;;;66.05;8.90;;;;;;;;;;5052803;28;20209;-68
2023/01/04 08:32:41;;;;;;;63.65;8.35;;;;;;;;;;5053336;28;20316;-68
2023/01/04 08:35:08;;;;;;;61.75;6.38;;;;;;;;;;5053740;28;20228;-68
2023/01/04 08:37:35;;;;;;;62.80;7.00;;;;;;;;;;5053677;28;20206;-68
2023/01/04 08:40:02;;;;;;;63.40;8.53;;;;;;;;;;5052755;28;20208;-69
2023/01/04 08:42:30;;;;;;;65.13;8.00;;;;;;;;;;5053758;28;20475;-69
2023/01/04 08:44:59;;;;;;;63.58;6.93;;;;;;;;;;5053298;28;20297;-69
2023/01/04 08:47:26;;;;;;;62.78;7.35;;;;;;;;;;5053071;28;20305;-68
2023/01/04 08:49:55;;;;;;;63.60;7.72;;;;;;;;;;5052447;28;20216;-69
2023/01/04 08:52:22;;;;;;;62.60;7.20;;;;;;;;;;5068673;28;20238;-69
2023/01/04 08:54:49;;;;;;;62.90;7.45;;;;;;;;;;5073200;28;20209;-69
2023/01/04 08:57:16;;;;;;;62.25;6.50;;;;;;;;;;5073056;28;20201;-69
2023/01/04 08:59:43;;;;;;;62.45;5.93;;;;;;;;;;5072138;28;20205;-68
2023/01/04 09:02:19;;;;;;;60.88;6.60;;;;;;;;;;5073086;28;20221;-68
2023/01/04 09:04:46;;;;;;;63.95;6.00;;;;;;;;;;5073167;28;20266;-69
2023/01/04 09:07:15;;;;;;;61.13;5.38;;;;;;;;;;5073045;28;20212;-69
2023/01/04 09:09:42;;;;;;;63.35;5.65;;;;;;;;;;5072325;28;20561;-69
2023/01/04 09:12:10;;;;;;;62.78;5.90;;;;;;;;;;5073138;28;20233;-69
2023/01/04 09:14:38;;;;;;;62.80;6.18;;;;;;;;;;5072721;28;20207;-68
2023/01/04 09:17:05;;;;;;;65.47;5.65;;;;;;;;;;5072893;28;20270;-69
2023/01/04 09:19:32;;;;;;;60.05;6.15;;;;;;;;;;5071818;28;20201;-68
2023/01/04 09:21:59;;;;;;;63.00;8.43;;;;;;;;;;5072643;28;20228;-69
2023/01/04 09:24:27;;;;;;;63.67;7.57;;;;;;;;;;5072950;28;20955;-68
2023/01/04 09:26:54;;;;;;;61.17;4.40;;;;;;;;;;5072391;28;20443;-68
2023/01/04 09:29:23;;;;;;;60.37;5.20;;;;;;;;;;5071638;28;20959;-69
2023/01/04 09:31:50;;;;;;;63.00;5.90;;;;;;;;;;5071673;28;20491;-68
2023/01/04 09:34:17;;;;;;;60.60;6.23;;;;;;;;;;5072497;28;20447;-68
2023/01/04 09:36:45;;;;;;;59.67;4.47;;;;;;;;;;5072375;28;20450;-68
2023/01/04 09:39:12;;;;;;;59.80;5.10;;;;;;;;;;5071487;28;20540;-68
2023/01/04 09:41:44;;;;;;;65.80;6.30;;;;;;;;;;5072118;28;20884;-68
2023/01/04 09:44:15;;;;;;;58.47;3.80;;;;;;;;;;5072383;28;20462;-68
2023/01/04 09:46:46;;;;;;;60.30;4.90;;;;;;;;;;5072323;28;20605;-68
2023/01/04 09:49:17;;;;;;;58.00;3.23;;;;;;;;;;5071309;28;20447;-68
2023/01/04 09:51:46;;;;;;;59.80;3.73;;;;;;;;;;5071937;28;20501;-69
2023/01/04 09:54:15;;;;;;;59.30;3.27;;;;;;;;;;5071989;28;20469;-69
2023/01/04 09:56:47;;;;;;;59.17;3.63;;;;;;;;;;5072073;28;20550;-69
2023/01/04 09:59:16;;;;;;;61.77;3.40;;;;;;;;;;5071297;28;20451;-69
2023/01/04 10:01:45;;;;;;;61.70;4.30;;;;;;;;;;5071860;28;20470;-69
2023/01/04 10:04:16;;;;;;;61.87;6.07;;;;;;;;;;5071844;28;20454;-69
2023/01/04 10:06:45;;;;;;;58.70;3.50;;;;;;;;;;5072119;28;20812;-69
2023/01/04 10:09:13;;;;;;;59.40;3.17;;;;;;;;;;5071439;28;20526;-69
2023/01/04 10:11:47;;;;;;;59.57;3.70;;;;;;;;;;5071696;28;20844;-69
2023/01/04 10:14:19;;;;;;;60.80;3.40;;;;;;;;;;5071746;28;20953;-69
2023/01/04 10:16:54;;;;;;;58.20;3.60;;;;;;;;;;5071761;28;20457;-70
2023/01/04 10:19:27;;;;;;;58.60;3.30;;;;;;;;;;5071320;28;20520;-70
2023/01/04 10:21:57;;;;;;;58.97;3.20;;;;;;;;;;5071892;28;20463;-70
2023/01/04 10:24:33;;;;;;;61.13;3.43;;;;;;;;;;5071773;28;20447;-70
2023/01/04 10:27:07;;;;;;;60.30;3.30;;;;;;;;;;5071865;28;20432;-70
2023/01/04 10:29:45;;;;;;;58.40;3.33;;;;;;;;;;5070945;28;20915;-70
2023/01/04 10:32:17;;;;;;;59.80;3.13;;;;;;;;;;5071763;28;20486;-70
2023/01/04 10:34:45;;;;;;;59.63;3.50;;;;;;;;;;5071880;28;20501;-70
2023/01/04 10:37:14;;;;;;;58.47;2.93;;;;;;;;;;5071606;28;20936;-70
2023/01/04 10:39:42;;;;;;;60.50;3.50;;;;;;;;;;5070814;28;20534;-70
2023/01/04 10:42:15;;;;;;;58.67;3.53;;;;;;;;;;5072788;28;20475;-70
2023/01/04 10:44:47;;;;;;;60.23;3.60;;;;;;;;;;5075697;28;20936;-70
2023/01/04 10:47:17;;;;;;;57.90;3.23;;;;;;;;;;5075865;28;20447;-70
2023/01/04 10:49:45;;;;;;;60.10;3.73;;;;;;;;;;5074966;28;20735;-70
2023/01/04 10:52:15;;;;;;;58.93;3.40;;;;;;;;;;5075116;28;20872;-70
2023/01/04 10:54:45;;;;;;;58.00;3.20;;;;;;;;;;5075788;28;20455;-70
2023/01/04 10:57:17;;;;;;;58.70;3.20;;;;;;;;;;5075678;28;20509;-70
2023/01/04 10:59:47;;;;;;;59.27;3.13;;;;;;;;;;5074748;28;20497;-70
2023/01/04 11:02:19;;;;;;;63.10;3.53;;;;;;;;;;5075338;28;20558;-70
2023/01/04 11:04:51;;;;;;;59.47;3.23;;;;;;;;;;5075282;28;20451;-70
2023/01/04 11:07:21;;;;;;;58.50;3.23;;;;;;;;;;5075309;28;20454;-70
2023/01/04 11:09:52;;;;;;;59.03;3.30;;;;;;;;;;5074426;28;20457;-70
2023/01/04 11:12:22;;;;;;;60.53;3.30;;;;;;;;;;5075060;28;20989;-70
2023/01/04 11:14:49;;;;;;;59.97;3.33;;;;;;;;;;5075181;28;20449;-70
2023/01/04 11:17:16;;;;;;;58.30;3.37;;;;;;;;;;5075028;28;20447;-70
2023/01/04 11:19:43;;;;;;;59.27;3.47;;;;;;;;;;5056920;28;20452;-70
2023/01/04 11:22:15;;;;;;;58.40;3.07;;;;;;;;;;5055182;28;20464;-70
2023/01/04 11:24:43;;;;;;;57.80;3.23;;;;;;;;;;5054856;28;20937;-70
2023/01/04 11:27:13;;;;;;;63.00;2.97;;;;;;;;;;5055066;28;20448;-70
2023/01/04 11:29:45;;;;;;;59.33;3.03;;;;;;;;;;5054092;28;20443;-70
2023/01/04 11:32:15;;;;;;;58.40;2.97;;;;;;;;;;5055187;28;20488;-70
2023/01/04 11:34:47;;;;;;;58.30;3.13;;;;;;;;;;5055003;28;20483;-70
2023/01/04 11:37:24;;;;;;;58.47;2.93;;;;;;;;;;5054903;28;20527;-70
2023/01/04 11:39:52;;;;;;;58.70;3.07;;;;;;;;;;5053852;28;20458;-70
2023/01/04 11:42:20;;;;;;;59.07;2.73;;;;;;;;;;5054464;28;20472;-70
2023/01/04 11:44:58;;;;;;;58.77;3.47;;;;;;;;;;5054581;28;20448;-70
2023/01/04 11:47:27;;;;;;;59.73;3.60;;;;;;;;;;5054754;28;20901;-70
2023/01/04 11:49:54;;;;;;;60.60;3.30;;;;;;;;;;5053844;28;20448;-70
2023/01/04 11:52:31;;;;;;;58.57;3.10;;;;;;;;;;5054415;28;20490;-70
2023/01/04 11:55:15;;;;;;;59.07;3.10;;;;;;;;;;5072982;28;20439;-70
2023/01/04 11:57:43;;;;;;;58.57;3.37;;;;;;;;;;5074556;28;20461;-70
2023/01/04 12:00:14;;;;;;;58.80;3.53;;;;;;;;;;5073684;28;20474;-70
2023/01/04 12:02:42;;;;;;;60.07;3.33;;;;;;;;;;5074381;28;20467;-70
2023/01/04 12:05:16;;;;;;;57.80;2.90;;;;;;;;;;5074213;28;20454;-70
2023/01/04 12:07:43;;;;;;;59.00;2.80;;;;;;;;;;5074493;28;20457;-70
2023/01/04 12:10:20;;;;;;;59.17;3.10;;;;;;;;;;5073375;28;20944;-70
2023/01/04 12:12:47;;;;;;;58.50;3.20;;;;;;;;;;5074054;28;20584;-70
2023/01/04 12:15:20;;;;;;;58.10;3.30;;;;;;;;;;5074103;28;20450;-70
2023/01/04 12:17:50;;;;;;;58.80;3.53;;;;;;;;;;5074002;28;20450;-70
2023/01/04 12:20:18;;;;;;;58.90;3.10;;;;;;;;;;5073343;28;20454;-70
2023/01/04 12:22:45;;;;;;;59.53;3.23;;;;;;;;;;5073770;28;20467;-70
2023/01/04 12:25:22;;;;;;;58.67;2.93;;;;;;;;;;5073792;28;20459;-70
2023/01/04 12:27:49;;;;;;;58.90;3.23;;;;;;;;;;5073844;28;20447;-70
2023/01/04 12:30:31;;;;;;;58.40;3.00;;;;;;;;;;5072909;28;20447;-70
2023/01/04 12:33:00;;;;;;;60.77;3.13;;;;;;;;;;5073816;28;20487;-70
2023/01/04 12:36:03;;;;;;;58.33;3.40;;;;;;;;;;5073820;28;20443;-70
2023/01/04 12:38:49;;;;;;;59.80;3.40;;;;;;;;;;5073273;28;20885;-70
2023/01/04 12:41:16;;;;;;;58.97;3.30;;;;;;;;;;5073694;28;20470;-70
2023/01/04 12:43:45;;;;;;;61.50;3.97;;;;;;;;;;5073836;28;20459;-70
2023/01/04 12:49:34;;;;;;;58.70;3.30;;;;;;;;;;5072668;28;20434;-70
2023/01/04 12:52:20;;;;;;;58.30;3.10;;;;;;;;;;5060945;28;20479;-70
2023/01/04 12:54:49;;;;;;;58.83;3.37;;;;;;;;;;5073397;28;20451;-70
2023/01/04 12:57:24;;;;;;;58.37;2.93;;;;;;;;;;5073134;28;20451;-70
2023/01/04 12:59:55;;;;;;;58.90;2.93;;;;;;;;;;5072721;28;20454;-70
2023/01/04 13:02:23;;;;;;;59.20;3.30;;;;;;;;;;5073458;28;20467;-70
2023/01/04 13:04:51;;;;;;;58.40;3.10;;;;;;;;;;5072768;28;20456;-70
2023/01/04 13:07:23;;;;;;;59.57;3.00;;;;;;;;;;5072516;28;20553;-70
2023/01/04 13:09:57;;;;;;;58.00;3.10;;;;;;;;;;5072164;28;20456;-70
2023/01/04 13:12:39;;;;;;;58.27;2.73;;;;;;;;;;5073037;28;20487;-70
2023/01/04 13:15:08;;;;;;;60.23;3.10;;;;;;;;;;5060391;28;20466;-70
2023/01/04 13:17:39;;;;;;;58.10;3.03;;;;;;;;;;5072883;28;20442;-70
2023/01/04 13:20:17;;;;;;;58.67;3.17;;;;;;;;;;5072051;28;20810;-70
2023/01/04 13:22:47;;;;;;;58.40;2.73;;;;;;;;;;5072574;28;20467;-70
2023/01/04 13:25:17;;;;;;;58.10;2.90;;;;;;;;;;5072581;28;20455;-70
2023/01/04 13:27:55;;;;;;;60.70;3.30;;;;;;;;;;5072590;28;20980;-70
2023/01/04 13:30:29;;;;;;;57.93;2.70;;;;;;;;;;5071925;28;20473;-70
2023/01/04 13:32:56;;;;;;;57.77;2.70;;;;;;;;;;5072406;28;20996;-70
2023/01/04 13:35:23;;;;;;;58.90;2.93;;;;;;;;;;5072710;28;20538;-70
2023/01/04 13:37:51;;;;;;;58.30;3.30;;;;;;;;;;5072585;28;20452;-70
2023/01/04 13:40:23;;;;;;;60.27;3.23;;;;;;;;;;5071679;28;20451;-70
2023/01/04 13:42:51;;;;;;;62.00;3.27;;;;;;;;;;5072403;28;20562;-70
2023/01/04 13:45:39;;;;;;;58.60;3.30;;;;;;;;;;5072242;28;20453;-70
2023/01/04 13:48:09;;;;;;;58.87;3.07;;;;;;;;;;5072248;28;20449;-70
2023/01/04 13:50:38;;;;;;;58.10;2.97;;;;;;;;;;5071609;28;20522;-70
2023/01/04 13:53:06;;;;;;;59.20;3.00;;;;;;;;;;5072420;28;20581;-70
2023/01/04 13:55:35;;;;;;;58.60;3.00;;;;;;;;;;5072041;28;20456;-70
2023/01/04 13:58:03;;;;;;;57.90;3.07;;;;;;;;;;5072291;28;20458;-70
2023/01/04 14:00:32;;;;;;;58.63;2.90;;;;;;;;;;5071611;28;20455;-70
2023/01/04 14:03:06;;;;;;;58.00;3.23;;;;;;;;;;5072113;28;20467;-70
2023/01/04 14:05:33;;;;;;;58.30;2.53;;;;;;;;;;5072177;28;20831;-70
2023/01/04 14:08:00;;;;;;;58.10;2.97;;;;;;;;;;5071958;28;20444;-70
2023/01/04 14:10:28;;;;;;;57.70;2.90;;;;;;;;;;5071682;28;20448;-70
2023/01/04 14:12:56;;;;;;;58.00;2.73;;;;;;;;;;5072102;28;20495;-70
2023/01/04 14:15:24;;;;;;;57.93;2.90;;;;;;;;;;5072040;28;20443;-70
2023/01/04 14:17:52;;;;;;;57.70;2.60;;;;;;;;;;5071556;28;20944;-70
2023/01/04 14:20:33;;;;;;;60.57;3.47;;;;;;;;;;5071083;28;20454;-70
2023/01/04 14:23:00;;;;;;;66.83;2.97;;;;;;;;;;5071775;28;20472;-70
2023/01/04 14:25:43;;;;;;;58.20;3.10;;;;;;;;;;5071793;28;20469;-70
2023/01/04 14:28:20;;;;;;;59.83;3.00;;;;;;;;;;5071865;28;20494;-70
2023/01/04 14:30:50;;;;;;;59.43;3.10;;;;;;;;;;5071041;28;20542;-70
2023/01/04 14:33:18;;;;;;;58.00;3.10;;;;;;;;;;5071583;28;20841;-70
2023/01/04 14:35:46;;;;;;;59.40;3.20;;;;;;;;;;5071933;28;20456;-70
2023/01/04 14:38:15;;;;;;;58.87;2.87;;;;;;;;;;5071768;28;20462;-70
2023/01/04 14:40:42;;;;;;;59.30;3.43;;;;;;;;;;5071053;28;20454;-70
2023/01/04 14:43:24;;;;;;;58.80;3.20;;;;;;;;;;5071723;28;20452;-70
2023/01/04 14:45:53;;;;;;;58.53;2.93;;;;;;;;;;5071282;28;20886;-70
2023/01/04 14:48:20;;;;;;;58.30;3.27;;;;;;;;;;5071453;28;20449;-70
2023/01/04 14:50:47;;;;;;;58.30;2.90;;;;;;;;;;5070913;28;20826;-70
2023/01/04 14:53:15;;;;;;;57.87;2.80;;;;;;;;;;5071632;28;20491;-70
2023/01/04 14:55:42;;;;;;;58.07;2.90;;;;;;;;;;5071526;28;20460;-70
2023/01/04 14:58:09;;;;;;;58.57;3.17;;;;;;;;;;5071326;28;20451;-70
2023/01/04 15:00:36;;;;;;;60.90;3.80;;;;;;;;;;5071028;28;20817;-70
2023/01/04 15:03:05;;;;;;;58.50;3.50;;;;;;;;;;5071468;28;20467;-70
2023/01/04 15:05:32;;;;;;;58.30;3.50;;;;;;;;;;5071879;28;20447;-70
2023/01/04 15:08:00;;;;;;;58.10;3.40;;;;;;;;;;5071401;28;20457;-70
2023/01/04 15:10:28;;;;;;;59.80;3.20;;;;;;;;;;5070714;28;20451;-70
2023/01/04 15:12:56;;;;;;;58.10;2.90;;;;;;;;;;5071160;28;20692;-70
2023/01/04 15:15:23;;;;;;;57.70;2.90;;;;;;;;;;5071549;28;20580;-70
2023/01/04 15:17:50;;;;;;;57.80;2.93;;;;;;;;;;5071475;28;20447;-70
2023/01/04 15:20:19;;;;;;;57.43;2.80;;;;;;;;;;5070570;28;20885;-70
2023/01/04 15:22:46;;;;;;;57.33;2.63;;;;;;;;;;5071174;28;20467;-70
2023/01/04 15:25:13;;;;;;;58.37;3.03;;;;;;;;;;5071127;28;20474;-70
2023/01/04 15:27:40;;;;;;;57.80;2.93;;;;;;;;;;5071262;28;20970;-70
2023/01/04 15:30:08;;;;;;;59.30;3.07;;;;;;;;;;5073287;28;20457;-70